Greenbush, Virginia
Current Conditions -  °F | °C
As of 9:35 PM on Thursday 20 Nov 2014 (Local Time) from KMFV Reporting Station
Clear Clear  
Wind Chill: 10°   Ceiling: Unl
Heat Index: 10°   Visibility: 10mi
Dew Point: -2°   Wind: 14mph
Humidity: 43%   Direction: 250°WSW
Pressure: 30.02"   Gusts: 23mph
Location:  37.74°N, 75.68°W
Report Text: KMFV 210235Z AUTO 25012G20KT 10SM CLR 10/M02 A3002 RMK AO2
Loading
Personal Weather Stations






























Interactive Weather Map New forecast layout! Learn more

10-Day Weather Forecast

Advertisements
Track Severe Weather on mobile